sensor_id;sensor_type;location;lat;lon;timestamp;temperature;humidity
65559;DHT22;52203;51.998;5.140;2022-10-16T00:02:20;6.68;118.99
65559;DHT22;52203;51.998;5.140;2022-10-16T00:04:45;6.60;118.99
65559;DHT22;52203;51.998;5.140;2022-10-16T00:07:11;6.66;118.99
65559;DHT22;52203;51.998;5.140;2022-10-16T00:09:37;6.66;118.99
65559;DHT22;52203;51.998;5.140;2022-10-16T00:12:02;6.67;118.99
65559;DHT22;52203;51.998;5.140;2022-10-16T00:14:29;6.68;118.99
65559;DHT22;52203;51.998;5.140;2022-10-16T00:16:55;6.71;118.99
65559;DHT22;52203;51.998;5.140;2022-10-16T00:19:21;6.74;118.99
65559;DHT22;52203;51.998;5.140;2022-10-16T00:21:46;6.81;118.99
65559;DHT22;52203;51.998;5.140;2022-10-16T00:24:12;6.88;118.99
65559;DHT22;52203;51.998;5.140;2022-10-16T00:26:38;6.89;118.99
65559;DHT22;52203;51.998;5.140;2022-10-16T00:29:05;6.94;118.99
65559;DHT22;52203;51.998;5.140;2022-10-16T00:31:30;6.93;118.99
65559;DHT22;52203;51.998;5.140;2022-10-16T00:33:56;6.95;118.99
65559;DHT22;52203;51.998;5.140;2022-10-16T00:36:24;6.97;118.99
65559;DHT22;52203;51.998;5.140;2022-10-16T00:38:54;6.97;118.99
65559;DHT22;52203;51.998;5.140;2022-10-16T00:41:22;7.00;118.99
65559;DHT22;52203;51.998;5.140;2022-10-16T00:43:55;7.07;118.99
65559;DHT22;52203;51.998;5.140;2022-10-16T00:46:28;7.09;118.99
65559;DHT22;52203;51.998;5.140;2022-10-16T00:49:16;7.10;118.99
65559;DHT22;52203;51.998;5.140;2022-10-16T00:51:50;7.14;118.99
65559;DHT22;52203;51.998;5.140;2022-10-16T00:54:26;7.22;118.99
65559;DHT22;52203;51.998;5.140;2022-10-16T00:56:53;7.25;118.99
65559;DHT22;52203;51.998;5.140;2022-10-16T00:59:39;7.28;118.99
65559;DHT22;52203;51.998;5.140;2022-10-16T01:02:07;7.37;118.99
65559;DHT22;52203;51.998;5.140;2022-10-16T01:04:48;7.40;118.99
65559;DHT22;52203;51.998;5.140;2022-10-16T01:07:48;7.42;118.99
65559;DHT22;52203;51.998;5.140;2022-10-16T01:10:32;7.38;118.99
65559;DHT22;52203;51.998;5.140;2022-10-16T01:13:08;7.43;118.99
65559;DHT22;52203;51.998;5.140;2022-10-16T01:16:05;7.45;118.99
65559;DHT22;52203;51.998;5.140;2022-10-16T01:24:03;7.50;118.99
65559;DHT22;52203;51.998;5.140;2022-10-16T01:29:18;7.53;118.99
65559;DHT22;52203;51.998;5.140;2022-10-16T01:31:53;7.52;118.99
65559;DHT22;52203;51.998;5.140;2022-10-16T01:34:30;7.49;118.99
65559;DHT22;52203;51.998;5.140;2022-10-16T01:37:04;7.45;118.99
65559;DHT22;52203;51.998;5.140;2022-10-16T01:39:33;7.42;118.99
65559;DHT22;52203;51.998;5.140;2022-10-16T01:42:15;7.39;118.99
65559;DHT22;52203;51.998;5.140;2022-10-16T01:44:43;7.33;118.99
65559;DHT22;52203;51.998;5.140;2022-10-16T01:47:12;7.33;118.99
65559;DHT22;52203;51.998;5.140;2022-10-16T01:49:39;7.34;118.99
65559;DHT22;52203;51.998;5.140;2022-10-16T01:52:10;7.33;118.99
65559;DHT22;52203;51.998;5.140;2022-10-16T01:54:40;7.34;118.99
65559;DHT22;52203;51.998;5.140;2022-10-16T01:57:07;7.35;118.99
65559;DHT22;52203;51.998;5.140;2022-10-16T01:59:42;7.33;118.99
65559;DHT22;52203;51.998;5.140;2022-10-16T02:02:10;7.28;118.99
65559;DHT22;52203;51.998;5.140;2022-10-16T02:04:44;7.30;118.99
65559;DHT22;52203;51.998;5.140;2022-10-16T02:07:10;7.29;118.99
65559;DHT22;52203;51.998;5.140;2022-10-16T02:09:36;7.23;118.99
65559;DHT22;52203;51.998;5.140;2022-10-16T02:12:21;7.24;118.99
65559;DHT22;52203;51.998;5.140;2022-10-16T02:14:49;7.26;118.99
65559;DHT22;52203;51.998;5.140;2022-10-16T02:17:16;7.26;118.99
65559;DHT22;52203;51.998;5.140;2022-10-16T02:19:42;7.24;118.99
65559;DHT22;52203;51.998;5.140;2022-10-16T02:22:14;7.18;118.99
65559;DHT22;52203;51.998;5.140;2022-10-16T02:27:35;7.12;118.99
65559;DHT22;52203;51.998;5.140;2022-10-16T02:32:45;7.13;118.99
65559;DHT22;52203;51.998;5.140;2022-10-16T02:35:12;7.09;118.99
65559;DHT22;52203;51.998;5.140;2022-10-16T02:37:39;7.13;118.99
65559;DHT22;52203;51.998;5.140;2022-10-16T02:40:06;7.13;118.99
65559;DHT22;52203;51.998;5.140;2022-10-16T02:42:34;7.14;118.99
65559;DHT22;52203;51.998;5.140;2022-10-16T02:45:00;7.15;118.99
65559;DHT22;52203;51.998;5.140;2022-10-16T02:47:26;7.18;118.99
65559;DHT22;52203;51.998;5.140;2022-10-16T02:49:52;7.10;118.99
65559;DHT22;52203;51.998;5.140;2022-10-16T02:52:18;7.23;118.99
65559;DHT22;52203;51.998;5.140;2022-10-16T02:54:43;7.27;118.99
65559;DHT22;52203;51.998;5.140;2022-10-16T02:57:09;7.26;118.99
65559;DHT22;52203;51.998;5.140;2022-10-16T02:59:34;7.30;118.99
65559;DHT22;52203;51.998;5.140;2022-10-16T03:02:00;7.24;118.99
65559;DHT22;52203;51.998;5.140;2022-10-16T03:04:25;7.19;118.99
65559;DHT22;52203;51.998;5.140;2022-10-16T03:06:51;7.26;118.99
65559;DHT22;52203;51.998;5.140;2022-10-16T03:09:16;7.23;118.99
65559;DHT22;52203;51.998;5.140;2022-10-16T03:11:42;7.13;118.99
65559;DHT22;52203;51.998;5.140;2022-10-16T03:14:07;7.12;118.99
65559;DHT22;52203;51.998;5.140;2022-10-16T03:16:33;7.13;118.99
65559;DHT22;52203;51.998;5.140;2022-10-16T03:18:59;7.16;118.99
65559;DHT22;52203;51.998;5.140;2022-10-16T03:21:24;7.19;118.99
65559;DHT22;52203;51.998;5.140;2022-10-16T03:23:50;7.17;118.99
65559;DHT22;52203;51.998;5.140;2022-10-16T03:26:15;7.13;118.99
65559;DHT22;52203;51.998;5.140;2022-10-16T03:28:41;7.12;118.99
65559;DHT22;52203;51.998;5.140;2022-10-16T03:31:06;7.02;118.99
65559;DHT22;52203;51.998;5.140;2022-10-16T03:33:33;7.00;118.99
65559;DHT22;52203;51.998;5.140;2022-10-16T03:35:58;7.02;118.99
65559;DHT22;52203;51.998;5.140;2022-10-16T03:38:24;7.05;118.99
65559;DHT22;52203;51.998;5.140;2022-10-16T03:40:50;7.04;118.99
65559;DHT22;52203;51.998;5.140;2022-10-16T03:43:15;7.07;118.99
65559;DHT22;52203;51.998;5.140;2022-10-16T03:45:41;7.08;118.99
65559;DHT22;52203;51.998;5.140;2022-10-16T03:48:06;7.07;118.99
65559;DHT22;52203;51.998;5.140;2022-10-16T03:50:32;7.04;118.99
65559;DHT22;52203;51.998;5.140;2022-10-16T03:52:57;6.99;118.99
65559;DHT22;52203;51.998;5.140;2022-10-16T03:55:23;6.96;118.99
65559;DHT22;52203;51.998;5.140;2022-10-16T03:57:48;6.91;118.99
65559;DHT22;52203;51.998;5.140;2022-10-16T04:00:14;6.94;118.99
65559;DHT22;52203;51.998;5.140;2022-10-16T04:02:39;6.88;118.99
65559;DHT22;52203;51.998;5.140;2022-10-16T04:05:06;6.94;118.99
65559;DHT22;52203;51.998;5.140;2022-10-16T04:07:32;6.94;118.99
65559;DHT22;52203;51.998;5.140;2022-10-16T04:09:57;6.97;118.99
65559;DHT22;52203;51.998;5.140;2022-10-16T04:12:25;6.96;118.99
65559;DHT22;52203;51.998;5.140;2022-10-16T04:14:50;6.95;118.99
65559;DHT22;52203;51.998;5.140;2022-10-16T04:17:16;7.00;118.99
65559;DHT22;52203;51.998;5.140;2022-10-16T04:19:41;6.95;118.99
65559;DHT22;52203;51.998;5.140;2022-10-16T04:22:07;6.97;118.99
65559;DHT22;52203;51.998;5.140;2022-10-16T04:24:33;6.91;118.99
65559;DHT22;52203;51.998;5.140;2022-10-16T04:26:58;6.94;118.99
65559;DHT22;52203;51.998;5.140;2022-10-16T04:29:24;6.97;118.99
65559;DHT22;52203;51.998;5.140;2022-10-16T04:31:49;6.98;118.99
65559;DHT22;52203;51.998;5.140;2022-10-16T04:34:15;6.90;118.99
65559;DHT22;52203;51.998;5.140;2022-10-16T04:36:40;6.82;118.99
65559;DHT22;52203;51.998;5.140;2022-10-16T04:39:06;6.74;118.99
65559;DHT22;52203;51.998;5.140;2022-10-16T04:41:31;6.76;118.99
65559;DHT22;52203;51.998;5.140;2022-10-16T04:43:57;6.74;118.99
65559;DHT22;52203;51.998;5.140;2022-10-16T04:46:22;6.72;118.99
65559;DHT22;52203;51.998;5.140;2022-10-16T04:48:48;6.73;118.99
65559;DHT22;52203;51.998;5.140;2022-10-16T04:51:13;6.69;118.99
65559;DHT22;52203;51.998;5.140;2022-10-16T04:53:39;6.57;118.99
65559;DHT22;52203;51.998;5.140;2022-10-16T04:56:05;6.68;118.99
65559;DHT22;52203;51.998;5.140;2022-10-16T04:58:30;6.64;118.99
65559;DHT22;52203;51.998;5.140;2022-10-16T05:00:56;6.65;118.99
65559;DHT22;52203;51.998;5.140;2022-10-16T05:03:21;6.67;118.99
65559;DHT22;52203;51.998;5.140;2022-10-16T05:05:47;6.61;118.99
65559;DHT22;52203;51.998;5.140;2022-10-16T05:08:14;6.64;118.99
65559;DHT22;52203;51.998;5.140;2022-10-16T05:10:41;6.59;118.99
65559;DHT22;52203;51.998;5.140;2022-10-16T05:13:07;6.51;118.99
65559;DHT22;52203;51.998;5.140;2022-10-16T05:15:33;6.48;118.99
65559;DHT22;52203;51.998;5.140;2022-10-16T05:17:59;6.50;118.99
65559;DHT22;52203;51.998;5.140;2022-10-16T05:20:25;6.46;118.99
65559;DHT22;52203;51.998;5.140;2022-10-16T05:22:50;6.50;118.99
65559;DHT22;52203;51.998;5.140;2022-10-16T05:25:16;6.45;118.99
65559;DHT22;52203;51.998;5.140;2022-10-16T05:27:42;6.49;118.99
65559;DHT22;52203;51.998;5.140;2022-10-16T05:30:08;6.46;118.99
65559;DHT22;52203;51.998;5.140;2022-10-16T05:32:33;6.48;118.99
65559;DHT22;52203;51.998;5.140;2022-10-16T05:34:59;6.54;118.99
65559;DHT22;52203;51.998;5.140;2022-10-16T05:37:27;6.55;118.99
65559;DHT22;52203;51.998;5.140;2022-10-16T05:39:52;6.54;118.99
65559;DHT22;52203;51.998;5.140;2022-10-16T05:42:18;6.57;118.99
65559;DHT22;52203;51.998;5.140;2022-10-16T05:44:44;6.59;118.99
65559;DHT22;52203;51.998;5.140;2022-10-16T05:47:09;6.67;118.99
65559;DHT22;52203;51.998;5.140;2022-10-16T05:49:36;6.66;118.99
65559;DHT22;52203;51.998;5.140;2022-10-16T05:52:01;6.70;118.99
65559;DHT22;52203;51.998;5.140;2022-10-16T05:54:27;6.72;118.99
65559;DHT22;52203;51.998;5.140;2022-10-16T05:56:52;6.80;118.99
65559;DHT22;52203;51.998;5.140;2022-10-16T05:59:18;6.81;118.99
65559;DHT22;52203;51.998;5.140;2022-10-16T06:01:43;6.81;118.99
65559;DHT22;52203;51.998;5.140;2022-10-16T06:04:09;6.84;118.99
65559;DHT22;52203;51.998;5.140;2022-10-16T06:06:35;6.78;118.99
65559;DHT22;52203;51.998;5.140;2022-10-16T06:09:02;6.80;118.99
65559;DHT22;52203;51.998;5.140;2022-10-16T06:11:29;6.88;118.99
65559;DHT22;52203;51.998;5.140;2022-10-16T06:13:57;6.89;118.99
65559;DHT22;52203;51.998;5.140;2022-10-16T06:16:24;6.93;118.99
65559;DHT22;52203;51.998;5.140;2022-10-16T06:18:51;6.94;118.99
65559;DHT22;52203;51.998;5.140;2022-10-16T06:21:20;6.99;118.99
65559;DHT22;52203;51.998;5.140;2022-10-16T06:23:46;6.96;118.99
65559;DHT22;52203;51.998;5.140;2022-10-16T06:26:13;7.01;118.99
65559;DHT22;52203;51.998;5.140;2022-10-16T06:28:39;7.04;118.99
65559;DHT22;52203;51.998;5.140;2022-10-16T06:31:07;7.10;118.99
65559;DHT22;52203;51.998;5.140;2022-10-16T06:33:33;7.13;118.99
65559;DHT22;52203;51.998;5.140;2022-10-16T06:36:06;7.14;118.99
65559;DHT22;52203;51.998;5.140;2022-10-16T06:38:33;7.16;118.99
65559;DHT22;52203;51.998;5.140;2022-10-16T06:40:59;7.17;118.99
65559;DHT22;52203;51.998;5.140;2022-10-16T06:43:25;7.22;118.99
65559;DHT22;52203;51.998;5.140;2022-10-16T06:45:55;7.29;118.99
65559;DHT22;52203;51.998;5.140;2022-10-16T06:48:21;7.25;118.99
65559;DHT22;52203;51.998;5.140;2022-10-16T06:51:03;7.23;118.99
65559;DHT22;52203;51.998;5.140;2022-10-16T06:53:32;7.27;118.99
65559;DHT22;52203;51.998;5.140;2022-10-16T06:55:58;7.27;118.99
65559;DHT22;52203;51.998;5.140;2022-10-16T06:58:31;7.27;118.99
65559;DHT22;52203;51.998;5.140;2022-10-16T07:00:56;7.24;118.99
65559;DHT22;52203;51.998;5.140;2022-10-16T07:03:22;7.24;118.99
65559;DHT22;52203;51.998;5.140;2022-10-16T07:05:48;7.25;118.99
65559;DHT22;52203;51.998;5.140;2022-10-16T07:08:13;7.24;118.99
65559;DHT22;52203;51.998;5.140;2022-10-16T07:10:39;7.26;118.99
65559;DHT22;52203;51.998;5.140;2022-10-16T07:13:04;7.24;118.99
65559;DHT22;52203;51.998;5.140;2022-10-16T07:15:32;7.29;118.99
65559;DHT22;52203;51.998;5.140;2022-10-16T07:17:58;7.29;118.99
65559;DHT22;52203;51.998;5.140;2022-10-16T07:20:23;7.32;118.99
65559;DHT22;52203;51.998;5.140;2022-10-16T07:22:49;7.37;118.99
65559;DHT22;52203;51.998;5.140;2022-10-16T07:25:14;7.39;118.99
65559;DHT22;52203;51.998;5.140;2022-10-16T07:27:40;7.38;118.99
65559;DHT22;52203;51.998;5.140;2022-10-16T07:30:06;7.43;118.99
65559;DHT22;52203;51.998;5.140;2022-10-16T07:32:32;7.44;118.99
65559;DHT22;52203;51.998;5.140;2022-10-16T07:34:57;7.40;118.99
65559;DHT22;52203;51.998;5.140;2022-10-16T07:37:23;7.39;118.99
65559;DHT22;52203;51.998;5.140;2022-10-16T07:39:48;7.32;118.99
65559;DHT22;52203;51.998;5.140;2022-10-16T07:42:14;7.31;118.99
65559;DHT22;52203;51.998;5.140;2022-10-16T07:44:39;7.27;118.99
65559;DHT22;52203;51.998;5.140;2022-10-16T07:47:06;7.28;118.99
65559;DHT22;52203;51.998;5.140;2022-10-16T07:49:31;7.25;118.99
65559;DHT22;52203;51.998;5.140;2022-10-16T07:51:57;7.29;118.99
65559;DHT22;52203;51.998;5.140;2022-10-16T07:54:22;7.28;118.99
65559;DHT22;52203;51.998;5.140;2022-10-16T07:56:48;7.28;118.99
65559;DHT22;52203;51.998;5.140;2022-10-16T07:59:14;7.28;118.99
65559;DHT22;52203;51.998;5.140;2022-10-16T08:01:40;7.38;118.99
65559;DHT22;52203;51.998;5.140;2022-10-16T08:04:07;7.42;118.99
65559;DHT22;52203;51.998;5.140;2022-10-16T08:06:39;7.42;118.99
65559;DHT22;52203;51.998;5.140;2022-10-16T08:09:06;7.42;118.99
65559;DHT22;52203;51.998;5.140;2022-10-16T08:11:32;7.46;118.99
65559;DHT22;52203;51.998;5.140;2022-10-16T08:13:57;7.50;118.99
65559;DHT22;52203;51.998;5.140;2022-10-16T08:16:23;7.59;118.99
65559;DHT22;52203;51.998;5.140;2022-10-16T08:18:48;7.57;118.99
65559;DHT22;52203;51.998;5.140;2022-10-16T08:21:18;7.62;118.99
65559;DHT22;52203;51.998;5.140;2022-10-16T08:23:44;7.60;118.99
65559;DHT22;52203;51.998;5.140;2022-10-16T08:26:10;7.64;118.99
65559;DHT22;52203;51.998;5.140;2022-10-16T08:28:37;7.69;118.99
65559;DHT22;52203;51.998;5.140;2022-10-16T08:31:14;7.72;118.99
65559;DHT22;52203;51.998;5.140;2022-10-16T08:33:41;7.81;118.99
65559;DHT22;52203;51.998;5.140;2022-10-16T08:36:09;7.78;118.99
65559;DHT22;52203;51.998;5.140;2022-10-16T08:38:35;7.81;118.99
65559;DHT22;52203;51.998;5.140;2022-10-16T08:41:36;7.89;118.99
65559;DHT22;52203;51.998;5.140;2022-10-16T08:49:27;8.13;118.99
65559;DHT22;52203;51.998;5.140;2022-10-16T08:51:53;8.13;118.99
65559;DHT22;52203;51.998;5.140;2022-10-16T08:54:35;8.15;118.99
65559;DHT22;52203;51.998;5.140;2022-10-16T08:57:32;8.24;118.99
65559;DHT22;52203;51.998;5.140;2022-10-16T09:00:12;8.27;118.99
65559;DHT22;52203;51.998;5.140;2022-10-16T09:02:44;8.43;118.99
65559;DHT22;52203;51.998;5.140;2022-10-16T09:05:17;8.43;118.99
65559;DHT22;52203;51.998;5.140;2022-10-16T09:08:01;8.44;118.99
65559;DHT22;52203;51.998;5.140;2022-10-16T09:13:26;8.52;118.99
65559;DHT22;52203;51.998;5.140;2022-10-16T09:21:36;8.75;118.99
65559;DHT22;52203;51.998;5.140;2022-10-16T09:24:18;8.86;118.99
65559;DHT22;52203;51.998;5.140;2022-10-16T09:26:44;8.80;118.99
65559;DHT22;52203;51.998;5.140;2022-10-16T09:29:17;8.92;118.99
65559;DHT22;52203;51.998;5.140;2022-10-16T09:31:46;9.06;118.99
65559;DHT22;52203;51.998;5.140;2022-10-16T09:34:30;9.03;118.99
65559;DHT22;52203;51.998;5.140;2022-10-16T09:36:59;9.12;118.99
65559;DHT22;52203;51.998;5.140;2022-10-16T09:39:25;9.23;118.99
65559;DHT22;52203;51.998;5.140;2022-10-16T09:41:51;9.21;118.99
65559;DHT22;52203;51.998;5.140;2022-10-16T09:44:46;9.29;118.99
65559;DHT22;52203;51.998;5.140;2022-10-16T09:47:24;9.33;118.99
65559;DHT22;52203;51.998;5.140;2022-10-16T09:49:55;10.27;118.99
65559;DHT22;52203;51.998;5.140;2022-10-16T09:52:22;9.88;118.99
65559;DHT22;52203;51.998;5.140;2022-10-16T09:54:53;9.63;118.99
65559;DHT22;52203;51.998;5.140;2022-10-16T09:57:19;9.56;118.99
65559;DHT22;52203;51.998;5.140;2022-10-16T09:59:49;9.55;118.99
65559;DHT22;52203;51.998;5.140;2022-10-16T10:02:17;9.74;118.99
65559;DHT22;52203;51.998;5.140;2022-10-16T10:04:52;9.95;118.99
65559;DHT22;52203;51.998;5.140;2022-10-16T10:07:31;10.22;118.99
65559;DHT22;52203;51.998;5.140;2022-10-16T10:10:04;10.14;118.99
65559;DHT22;52203;51.998;5.140;2022-10-16T10:12:31;9.99;118.99
65559;DHT22;52203;51.998;5.140;2022-10-16T10:15:04;10.30;118.99
65559;DHT22;52203;51.998;5.140;2022-10-16T10:17:31;10.27;118.99
65559;DHT22;52203;51.998;5.140;2022-10-16T10:19:59;10.92;118.99
65559;DHT22;52203;51.998;5.140;2022-10-16T10:22:42;11.12;118.99
65559;DHT22;52203;51.998;5.140;2022-10-16T10:33:26;10.45;118.99
65559;DHT22;52203;51.998;5.140;2022-10-16T10:36:00;10.31;118.99
65559;DHT22;52203;51.998;5.140;2022-10-16T10:52:48;10.88;118.99
65559;DHT22;52203;51.998;5.140;2022-10-16T11:01:12;11.31;118.99
65559;DHT22;52203;51.998;5.140;2022-10-16T11:06:29;11.02;118.99
65559;DHT22;52203;51.998;5.140;2022-10-16T11:09:17;10.94;118.99
65559;DHT22;52203;51.998;5.140;2022-10-16T11:12:16;10.51;118.99
65559;DHT22;52203;51.998;5.140;2022-10-16T11:17:30;11.31;118.99
65559;DHT22;52203;51.998;5.140;2022-10-16T11:20:05;11.66;118.99
65559;DHT22;52203;51.998;5.140;2022-10-16T11:22:39;11.60;118.99
65559;DHT22;52203;51.998;5.140;2022-10-16T11:25:27;11.57;118.99
65559;DHT22;52203;51.998;5.140;2022-10-16T11:28:14;11.77;118.99
65559;DHT22;52203;51.998;5.140;2022-10-16T11:30:49;12.04;118.99
65559;DHT22;52203;51.998;5.140;2022-10-16T11:33:23;11.92;118.99
65559;DHT22;52203;51.998;5.140;2022-10-16T11:41:52;11.32;118.99
65559;DHT22;52203;51.998;5.140;2022-10-16T11:47:33;11.22;118.99
65559;DHT22;52203;51.998;5.140;2022-10-16T11:55:36;10.90;118.99
65559;DHT22;52203;51.998;5.140;2022-10-16T11:58:28;11.01;118.99
65559;DHT22;52203;51.998;5.140;2022-10-16T12:06:59;10.92;118.99
65559;DHT22;52203;51.998;5.140;2022-10-16T12:09:34;10.86;118.99
65559;DHT22;52203;51.998;5.140;2022-10-16T12:12:00;10.96;118.99
65559;DHT22;52203;51.998;5.140;2022-10-16T12:14:33;11.11;118.99
65559;DHT22;52203;51.998;5.140;2022-10-16T12:17:25;11.08;118.99
65559;DHT22;52203;51.998;5.140;2022-10-16T12:20:22;11.09;118.99
65559;DHT22;52203;51.998;5.140;2022-10-16T12:22:53;11.02;118.99
65559;DHT22;52203;51.998;5.140;2022-10-16T12:25:37;10.85;118.99
65559;DHT22;52203;51.998;5.140;2022-10-16T12:30:42;10.87;118.99
65559;DHT22;52203;51.998;5.140;2022-10-16T12:33:22;10.89;118.99
65559;DHT22;52203;51.998;5.140;2022-10-16T12:35:48;10.98;118.99
65559;DHT22;52203;51.998;5.140;2022-10-16T12:40:44;11.01;118.99
65559;DHT22;52203;51.998;5.140;2022-10-16T12:43:44;10.97;118.99
65559;DHT22;52203;51.998;5.140;2022-10-16T12:48:37;10.98;118.99
65559;DHT22;52203;51.998;5.140;2022-10-16T12:51:10;11.02;118.99
65559;DHT22;52203;51.998;5.140;2022-10-16T12:53:36;11.08;118.99
65559;DHT22;52203;51.998;5.140;2022-10-16T12:56:26;11.09;118.99
65559;DHT22;52203;51.998;5.140;2022-10-16T12:59:06;11.11;118.99
65559;DHT22;52203;51.998;5.140;2022-10-16T13:10:50;11.08;118.99
65559;DHT22;52203;51.998;5.140;2022-10-16T13:13:40;11.14;118.99
65559;DHT22;52203;51.998;5.140;2022-10-16T13:16:17;11.25;118.99
65559;DHT22;52203;51.998;5.140;2022-10-16T13:24:15;11.23;118.99
65559;DHT22;52203;51.998;5.140;2022-10-16T13:26:56;11.16;118.99
65559;DHT22;52203;51.998;5.140;2022-10-16T13:29:28;11.12;118.99
65559;DHT22;52203;51.998;5.140;2022-10-16T13:31:55;11.07;118.99
65559;DHT22;52203;51.998;5.140;2022-10-16T13:34:21;11.11;118.99
65559;DHT22;52203;51.998;5.140;2022-10-16T13:36:50;11.17;118.99
65559;DHT22;52203;51.998;5.140;2022-10-16T13:39:28;11.09;118.99
65559;DHT22;52203;51.998;5.140;2022-10-16T13:42:14;11.03;118.99
65559;DHT22;52203;51.998;5.140;2022-10-16T13:44:46;11.08;118.99
65559;DHT22;52203;51.998;5.140;2022-10-16T13:47:17;11.12;118.99
65559;DHT22;52203;51.998;5.140;2022-10-16T13:49:42;11.10;118.99
65559;DHT22;52203;51.998;5.140;2022-10-16T13:52:19;11.22;118.99
65559;DHT22;52203;51.998;5.140;2022-10-16T13:54:45;11.23;118.99
65559;DHT22;52203;51.998;5.140;2022-10-16T13:57:14;11.26;118.99
65559;DHT22;52203;51.998;5.140;2022-10-16T13:59:40;11.23;118.99
65559;DHT22;52203;51.998;5.140;2022-10-16T14:02:20;11.18;118.99
65559;DHT22;52203;51.998;5.140;2022-10-16T14:04:48;11.25;118.99
65559;DHT22;52203;51.998;5.140;2022-10-16T14:07:20;11.34;118.99
65559;DHT22;52203;51.998;5.140;2022-10-16T14:09:50;11.28;118.99
65559;DHT22;52203;51.998;5.140;2022-10-16T14:12:16;11.23;118.99
65559;DHT22;52203;51.998;5.140;2022-10-16T14:14:45;11.22;118.99
65559;DHT22;52203;51.998;5.140;2022-10-16T14:17:16;11.23;118.99
65559;DHT22;52203;51.998;5.140;2022-10-16T14:19:47;11.17;118.99
65559;DHT22;52203;51.998;5.140;2022-10-16T14:22:40;11.27;118.99
65559;DHT22;52203;51.998;5.140;2022-10-16T14:25:23;11.37;118.99
65559;DHT22;52203;51.998;5.140;2022-10-16T14:28:01;11.48;118.99
65559;DHT22;52203;51.998;5.140;2022-10-16T14:30:28;11.51;118.99
65559;DHT22;52203;51.998;5.140;2022-10-16T14:33:00;11.51;118.99
65559;DHT22;52203;51.998;5.140;2022-10-16T14:35:29;11.47;118.99
65559;DHT22;52203;51.998;5.140;2022-10-16T14:37:56;11.45;118.99
65559;DHT22;52203;51.998;5.140;2022-10-16T14:40:48;11.38;118.99
65559;DHT22;52203;51.998;5.140;2022-10-16T14:43:37;11.30;118.99
65559;DHT22;52203;51.998;5.140;2022-10-16T14:46:20;11.29;118.99
65559;DHT22;52203;51.998;5.140;2022-10-16T14:48:59;11.30;118.99
65559;DHT22;52203;51.998;5.140;2022-10-16T14:51:26;11.25;118.99
65559;DHT22;52203;51.998;5.140;2022-10-16T14:53:51;11.24;118.99
65559;DHT22;52203;51.998;5.140;2022-10-16T14:56:19;11.23;118.99
65559;DHT22;52203;51.998;5.140;2022-10-16T14:58:46;11.23;118.99
65559;DHT22;52203;51.998;5.140;2022-10-16T15:01:12;11.27;118.99
65559;DHT22;52203;51.998;5.140;2022-10-16T15:03:38;11.33;118.99
65559;DHT22;52203;51.998;5.140;2022-10-16T15:06:13;11.38;118.99
65559;DHT22;52203;51.998;5.140;2022-10-16T15:08:39;11.44;118.99
65559;DHT22;52203;51.998;5.140;2022-10-16T15:11:17;11.64;118.99
65559;DHT22;52203;51.998;5.140;2022-10-16T15:13:43;11.78;118.99
65559;DHT22;52203;51.998;5.140;2022-10-16T15:16:13;11.77;118.99
65559;DHT22;52203;51.998;5.140;2022-10-16T15:18:40;11.43;118.99
65559;DHT22;52203;51.998;5.140;2022-10-16T15:21:06;11.28;118.99
65559;DHT22;52203;51.998;5.140;2022-10-16T15:23:31;11.23;118.99
65559;DHT22;52203;51.998;5.140;2022-10-16T15:25:57;11.30;118.99
65559;DHT22;52203;51.998;5.140;2022-10-16T15:28:24;11.13;118.99
65559;DHT22;52203;51.998;5.140;2022-10-16T15:30:52;10.94;118.99
65559;DHT22;52203;51.998;5.140;2022-10-16T15:33:21;10.86;118.99
65559;DHT22;52203;51.998;5.140;2022-10-16T15:35:48;10.89;118.99
65559;DHT22;52203;51.998;5.140;2022-10-16T15:38:15;10.54;118.99
65559;DHT22;52203;51.998;5.140;2022-10-16T15:40:41;10.25;118.99
65559;DHT22;52203;51.998;5.140;2022-10-16T15:43:07;10.24;118.99
65559;DHT22;52203;51.998;5.140;2022-10-16T15:45:33;10.33;118.99
65559;DHT22;52203;51.998;5.140;2022-10-16T15:47:59;10.24;118.99
65559;DHT22;52203;51.998;5.140;2022-10-16T15:50:25;9.98;118.99
65559;DHT22;52203;51.998;5.140;2022-10-16T15:52:51;9.93;118.99
65559;DHT22;52203;51.998;5.140;2022-10-16T15:55:16;9.85;118.99
65559;DHT22;52203;51.998;5.140;2022-10-16T15:57:44;9.65;118.99
65559;DHT22;52203;51.998;5.140;2022-10-16T16:00:12;9.57;118.99
65559;DHT22;52203;51.998;5.140;2022-10-16T16:02:39;9.62;118.99
65559;DHT22;52203;51.998;5.140;2022-10-16T16:05:06;9.51;118.99
65559;DHT22;52203;51.998;5.140;2022-10-16T16:07:36;9.61;118.99
65559;DHT22;52203;51.998;5.140;2022-10-16T16:10:04;9.51;118.99
65559;DHT22;52203;51.998;5.140;2022-10-16T16:12:29;9.40;118.99
65559;DHT22;52203;51.998;5.140;2022-10-16T16:14:55;9.36;118.99
65559;DHT22;52203;51.998;5.140;2022-10-16T16:17:20;9.47;118.99
65559;DHT22;52203;51.998;5.140;2022-10-16T16:19:46;9.59;118.99
65559;DHT22;52203;51.998;5.140;2022-10-16T16:22:12;9.68;118.99
65559;DHT22;52203;51.998;5.140;2022-10-16T16:24:38;9.70;118.99
65559;DHT22;52203;51.998;5.140;2022-10-16T16:27:03;9.72;118.99
65559;DHT22;52203;51.998;5.140;2022-10-16T16:29:29;9.63;118.99
65559;DHT22;52203;51.998;5.140;2022-10-16T16:31:55;9.54;118.99
65559;DHT22;52203;51.998;5.140;2022-10-16T16:34:26;9.47;118.99
65559;DHT22;52203;51.998;5.140;2022-10-16T16:36:52;9.36;118.99
65559;DHT22;52203;51.998;5.140;2022-10-16T16:39:18;9.35;118.99
65559;DHT22;52203;51.998;5.140;2022-10-16T16:41:44;9.36;118.99
65559;DHT22;52203;51.998;5.140;2022-10-16T16:44:13;9.37;118.99
65559;DHT22;52203;51.998;5.140;2022-10-16T16:46:39;9.36;118.99
65559;DHT22;52203;51.998;5.140;2022-10-16T16:49:06;9.33;118.99
65559;DHT22;52203;51.998;5.140;2022-10-16T16:51:33;9.18;118.99
65559;DHT22;52203;51.998;5.140;2022-10-16T16:53:58;9.22;118.99
65559;DHT22;52203;51.998;5.140;2022-10-16T16:56:25;9.20;118.99
65559;DHT22;52203;51.998;5.140;2022-10-16T16:58:54;9.14;118.99
65559;DHT22;52203;51.998;5.140;2022-10-16T17:01:22;9.14;118.99
65559;DHT22;52203;51.998;5.140;2022-10-16T17:03:49;9.16;118.99
65559;DHT22;52203;51.998;5.140;2022-10-16T17:06:18;9.18;118.99
65559;DHT22;52203;51.998;5.140;2022-10-16T17:08:44;9.17;118.99
65559;DHT22;52203;51.998;5.140;2022-10-16T17:11:25;9.17;118.99
65559;DHT22;52203;51.998;5.140;2022-10-16T17:13:52;9.17;118.99
65559;DHT22;52203;51.998;5.140;2022-10-16T17:16:20;9.12;118.99
65559;DHT22;52203;51.998;5.140;2022-10-16T17:18:45;9.03;118.99
65559;DHT22;52203;51.998;5.140;2022-10-16T17:21:12;9.03;118.99
65559;DHT22;52203;51.998;5.140;2022-10-16T17:23:38;9.08;118.99
65559;DHT22;52203;51.998;5.140;2022-10-16T17:26:14;9.07;118.99
65559;DHT22;52203;51.998;5.140;2022-10-16T17:28:41;9.02;118.99